TAF KSBN
KSBN 072320Z 0800/0824 20007KT P6SM BKN080 FM081500 23008KT P6SM VCSH BKN045 FM081800 30010KT P6SM BKN035=
METAR KSBN
WC KSBN
WS KSBN
WV KSBN